createdAt,value
2019-05-03T00:00:27.953Z,1005.08
2019-05-03T00:01:27.929Z,1005.07
2019-05-03T00:02:27.968Z,1005.04
2019-05-03T00:03:27.911Z,1005.08
2019-05-03T00:04:28.024Z,1005.07
2019-05-03T00:05:27.883Z,1005.07
2019-05-03T00:06:27.892Z,1005.07
2019-05-03T00:07:27.861Z,1005.07
2019-05-03T00:08:27.908Z,1005.06
2019-05-03T00:09:27.861Z,1005.04
2019-05-03T00:10:27.924Z,1005.09
2019-05-03T00:11:27.815Z,1005.04
2019-05-03T00:12:27.831Z,1005.09
2019-05-03T00:13:27.793Z,1005.10
2019-05-03T00:14:27.847Z,1005.05
2019-05-03T00:15:27.787Z,1005.08
2019-05-03T00:16:27.861Z,1005.09
2019-05-03T00:17:27.749Z,1005.06
2019-05-03T00:18:27.769Z,1005.12
2019-05-03T00:19:27.738Z,1005.12
2019-05-03T00:20:27.818Z,1005.12
2019-05-03T00:21:27.712Z,1005.16
2019-05-03T00:22:27.799Z,1005.15
2019-05-03T00:23:27.691Z,1005.11
2019-05-03T00:24:27.709Z,1005.17
2019-05-03T00:25:27.674Z,1005.14
2019-05-03T00:26:27.722Z,1005.12
2019-05-03T00:27:27.640Z,1005.18
2019-05-03T00:28:27.736Z,1005.15
2019-05-03T00:29:27.632Z,1005.16
2019-05-03T00:30:27.677Z,1005.19
2019-05-03T00:31:27.598Z,1005.14
2019-05-03T00:32:27.662Z,1005.13
2019-05-03T00:33:27.574Z,1005.19
2019-05-03T00:34:28.613Z,1005.18
2019-05-03T00:35:27.563Z,1005.17
2019-05-03T00:36:27.586Z,1005.14
2019-05-03T00:37:27.530Z,1005.13
2019-05-03T00:38:27.600Z,1005.15
2019-05-03T00:39:27.507Z,1005.18
2019-05-03T00:40:27.539Z,1005.13
2019-05-03T00:41:27.487Z,1005.21
2019-05-03T00:42:27.525Z,1005.13
2019-05-03T00:43:27.470Z,1005.19
2019-05-03T00:44:27.538Z,1005.14
2019-05-03T00:45:27.456Z,1005.23
2019-05-03T00:46:27.451Z,1005.17
2019-05-03T00:47:27.419Z,1005.20
2019-05-03T00:48:27.466Z,1005.16
2019-05-03T00:49:27.401Z,1005.14
2019-05-03T00:50:27.509Z,1005.20
2019-05-03T00:51:27.380Z,1005.18
2019-05-03T00:52:27.393Z,1005.22
2019-05-03T00:53:27.353Z,1005.23
2019-05-03T00:54:27.403Z,1005.16
2019-05-03T00:55:27.345Z,1005.20
2019-05-03T00:56:27.419Z,1005.18
2019-05-03T00:57:27.310Z,1005.21
2019-05-03T00:58:27.330Z,1005.22
2019-05-03T00:59:27.288Z,1005.18
2019-05-03T01:00:27.392Z,1005.17
2019-05-03T01:01:27.284Z,1005.18
2019-05-03T01:02:27.367Z,1005.17
2019-05-03T01:03:27.245Z,1005.20
2019-05-03T01:04:27.269Z,1005.24
2019-05-03T01:05:27.237Z,1005.22
2019-05-03T01:06:27.279Z,1005.27
2019-05-03T01:07:27.201Z,1005.25
2019-05-03T01:08:27.295Z,1005.26
2019-05-03T01:09:27.183Z,1005.23
2019-05-03T01:10:27.234Z,1005.25
2019-05-03T01:11:27.163Z,1005.29
2019-05-03T01:12:27.222Z,1005.30
2019-05-03T01:13:27.135Z,1005.30
2019-05-03T01:14:27.233Z,1005.27
2019-05-03T01:15:27.124Z,1005.26
2019-05-03T01:16:34.107Z,1005.23
2019-05-03T01:17:27.090Z,1005.28
2019-05-03T01:18:33.610Z,1005.28
2019-05-03T01:19:27.079Z,1005.29
2019-05-03T01:20:27.098Z,1005.25
2019-05-03T01:21:27.050Z,1005.30
2019-05-03T01:22:27.082Z,1005.21
2019-05-03T01:23:27.028Z,1005.24
2019-05-03T01:24:27.096Z,1005.27
2019-05-03T01:25:32.186Z,1005.34
2019-05-03T01:26:28.035Z,1005.30
2019-05-03T01:27:26.981Z,1005.28
2019-05-03T01:28:27.022Z,1005.30
2019-05-03T01:29:26.962Z,1005.28
2019-05-03T01:30:27.068Z,1005.33
2019-05-03T01:31:26.940Z,1005.31
2019-05-03T01:32:26.947Z,1005.27
2019-05-03T01:33:26.914Z,1005.28
2019-05-03T01:34:26.959Z,1005.23
2019-05-03T01:35:26.924Z,1005.29
2019-05-03T01:36:26.974Z,1005.30
2019-05-03T01:37:26.872Z,1005.28
2019-05-03T01:38:26.886Z,1005.29
2019-05-03T01:39:26.853Z,1005.30
2019-05-03T01:40:26.899Z,1005.35
2019-05-03T01:41:26.841Z,1005.30
2019-05-03T01:42:26.913Z,1005.29
2019-05-03T01:43:26.808Z,1005.33
2019-05-03T01:44:26.823Z,1005.33
2019-05-03T01:45:26.785Z,1005.31
2019-05-03T01:46:26.867Z,1005.31
2019-05-03T01:47:26.765Z,1005.37
2019-05-03T01:48:26.853Z,1005.34
2019-05-03T01:49:26.739Z,1005.40
2019-05-03T01:50:26.762Z,1005.38
2019-05-03T01:51:26.734Z,1005.41
2019-05-03T01:52:26.778Z,1005.42
2019-05-03T01:53:26.696Z,1005.36
2019-05-03T01:54:26.790Z,1005.39
2019-05-03T01:55:26.675Z,1005.43
2019-05-03T01:56:26.742Z,1005.38
2019-05-03T01:57:26.654Z,1005.44
2019-05-03T01:58:27.739Z,1005.37
2019-05-03T01:59:26.629Z,1005.45
2019-05-03T02:00:33.693Z,1005.42
2019-05-03T02:01:26.619Z,1005.43
2019-05-03T02:02:33.706Z,1005.47
2019-05-03T02:03:26.590Z,1005.44
2019-05-03T02:04:28.601Z,1005.49
2019-05-03T02:05:26.568Z,1005.49
2019-05-03T02:06:26.598Z,1005.50
2019-05-03T02:07:26.546Z,1005.48
2019-05-03T02:08:26.587Z,1005.54
2019-05-03T02:09:26.523Z,1005.57
2019-05-03T02:10:26.593Z,1005.56
2019-05-03T02:11:26.516Z,1005.56
2019-05-03T02:12:26.504Z,1005.57
2019-05-03T02:13:26.483Z,1005.57
2019-05-03T02:14:26.520Z,1005.57
2019-05-03T02:15:26.459Z,1005.60
2019-05-03T02:16:26.575Z,1005.62
2019-05-03T02:17:26.437Z,1005.61
2019-05-03T02:18:26.443Z,1005.64
2019-05-03T02:19:26.416Z,1005.62
2019-05-03T02:20:26.458Z,1005.65
2019-05-03T02:21:26.406Z,1005.66
2019-05-03T02:22:26.474Z,1005.63
2019-05-03T02:23:26.373Z,1005.62
2019-05-03T02:24:26.381Z,1005.62
2019-05-03T02:25:26.349Z,1005.64
2019-05-03T02:26:26.428Z,1005.54
2019-05-03T02:27:26.334Z,1005.57
2019-05-03T02:28:26.409Z,1005.59
2019-05-03T02:29:26.308Z,1005.63
2019-05-03T02:30:26.323Z,1005.69
2019-05-03T02:31:26.305Z,1005.68
2019-05-03T02:32:26.336Z,1005.72
2019-05-03T02:33:26.276Z,1005.70
2019-05-03T02:34:26.351Z,1005.68
2019-05-03T02:35:26.244Z,1005.69
2019-05-03T02:36:26.291Z,1005.71
2019-05-03T02:37:26.221Z,1005.71
2019-05-03T02:38:26.273Z,1005.73
2019-05-03T02:39:26.217Z,1005.71
2019-05-03T02:40:26.292Z,1005.70
2019-05-03T02:41:26.212Z,1005.75
2019-05-03T02:42:26.655Z,1005.72
2019-05-03T02:43:26.474Z,1005.75
2019-05-03T02:44:26.800Z,1005.75
2019-05-03T02:45:26.142Z,1005.78
2019-05-03T02:46:26.159Z,1005.78
2019-05-03T02:47:26.673Z,1005.81
2019-05-03T02:48:36.482Z,1005.80
2019-05-03T02:49:26.158Z,1005.81
2019-05-03T02:50:28.104Z,1005.83
2019-05-03T02:51:26.395Z,1005.86
2019-05-03T02:52:27.093Z,1005.81
2019-05-03T02:53:26.342Z,1005.82
2019-05-03T02:54:26.812Z,1005.81
2019-05-03T02:55:26.486Z,1005.84
2019-05-03T02:56:26.429Z,1005.90
2019-05-03T02:57:26.064Z,1005.89
2019-05-03T02:58:26.104Z,1005.85
2019-05-03T02:59:26.544Z,1005.89
2019-05-03T03:00:26.016Z,1005.86
2019-05-03T03:01:26.466Z,1005.91
2019-05-03T03:02:26.451Z,1005.93
2019-05-03T03:03:25.940Z,1005.88
2019-05-03T03:04:26.287Z,1005.84
2019-05-03T03:05:25.919Z,1005.86
2019-05-03T03:06:26.693Z,1005.83
2019-05-03T03:07:26.084Z,1005.84
2019-05-03T03:08:25.978Z,1005.84
2019-05-03T03:09:26.226Z,1005.82
2019-05-03T03:10:26.527Z,1005.87
2019-05-03T03:11:26.226Z,1005.89
2019-05-03T03:12:25.917Z,1005.87
2019-05-03T03:13:25.837Z,1005.91
2019-05-03T03:14:25.959Z,1005.90
2019-05-03T03:15:25.812Z,1005.87
2019-05-03T03:16:25.854Z,1005.87
2019-05-03T03:17:25.796Z,1005.88
2019-05-03T03:18:25.834Z,1005.88
2019-05-03T03:19:26.261Z,1005.89
2019-05-03T03:20:25.847Z,1005.90
2019-05-03T03:21:26.139Z,1005.89
2019-05-03T03:22:26.086Z,1005.90
2019-05-03T03:23:26.448Z,1005.92
2019-05-03T03:24:26.005Z,1005.89
2019-05-03T03:25:26.021Z,1005.93
2019-05-03T03:26:37.599Z,1005.92
2019-05-03T03:27:26.696Z,1005.96
2019-05-03T03:28:25.698Z,1005.98
2019-05-03T03:29:25.722Z,1005.93
2019-05-03T03:30:29.211Z,1005.95
2019-05-03T03:31:28.252Z,1005.95
2019-05-03T03:32:29.987Z,1005.94
2019-05-03T03:33:28.071Z,1005.94
2019-05-03T03:34:37.967Z,1005.92
2019-05-03T03:35:29.769Z,1005.91
2019-05-03T03:36:50.403Z,1005.96
2019-05-03T03:37:26.614Z,1005.93
2019-05-03T03:38:26.144Z,1005.96
2019-05-03T03:39:26.183Z,1006.00
2019-05-03T03:40:25.651Z,1005.97
2019-05-03T03:41:25.581Z,1006.01
2019-05-03T03:42:25.544Z,1005.98
2019-05-03T03:43:26.042Z,1006.03
2019-05-03T03:44:25.850Z,1006.09
2019-05-03T03:45:25.573Z,1006.09
2019-05-03T03:46:25.483Z,1006.07
2019-05-03T03:47:27.407Z,1006.04
2019-05-03T03:48:26.640Z,1006.07
2019-05-03T03:49:26.235Z,1006.08
2019-05-03T03:50:26.072Z,1006.11
2019-05-03T03:51:26.297Z,1006.10
2019-05-03T03:52:25.653Z,1006.10
2019-05-03T03:53:26.470Z,1006.10
2019-05-03T03:54:26.100Z,1006.10
2019-05-03T03:55:26.347Z,1006.14
2019-05-03T03:56:25.653Z,1006.20
2019-05-03T03:57:25.419Z,1006.23
2019-05-03T03:58:27.139Z,1006.18
2019-05-03T03:59:26.769Z,1006.20
2019-05-03T04:00:25.903Z,1006.24
2019-05-03T04:01:26.702Z,1006.26
2019-05-03T04:02:26.523Z,1006.23
2019-05-03T04:03:26.193Z,1006.28
2019-05-03T04:04:25.968Z,1006.28
2019-05-03T04:05:25.714Z,1006.27
2019-05-03T04:06:26.953Z,1006.35
2019-05-03T04:07:26.224Z,1006.30
2019-05-03T04:08:25.349Z,1006.34
2019-05-03T04:09:25.711Z,1006.37
2019-05-03T04:10:26.094Z,1006.33
2019-05-03T04:11:25.874Z,1006.37
2019-05-03T04:12:26.392Z,1006.39
2019-05-03T04:13:25.690Z,1006.36
2019-05-03T04:14:25.481Z,1006.38
2019-05-03T04:15:26.089Z,1006.41
2019-05-03T04:16:25.853Z,1006.40
2019-05-03T04:17:26.068Z,1006.38
2019-05-03T04:18:25.693Z,1006.41
2019-05-03T04:19:25.275Z,1006.43
2019-05-03T04:20:25.867Z,1006.48
2019-05-03T04:22:25.568Z,1006.46
2019-05-03T04:23:27.118Z,1006.47
2019-05-03T04:24:25.932Z,1006.48
2019-05-03T04:25:26.522Z,1006.45
2019-05-03T04:26:29.442Z,1006.56
2019-05-03T04:27:27.626Z,1006.55
2019-05-03T04:28:25.688Z,1006.53
2019-05-03T04:29:25.470Z,1006.48
2019-05-03T04:30:25.655Z,1006.51
2019-05-03T04:31:26.122Z,1006.54
2019-05-03T04:32:28.746Z,1006.52
2019-05-03T04:33:26.934Z,1006.56
2019-05-03T04:34:26.382Z,1006.60
2019-05-03T04:35:26.534Z,1006.64
2019-05-03T04:36:26.250Z,1006.63
2019-05-03T04:37:26.628Z,1006.62
2019-05-03T04:38:25.714Z,1006.58
2019-05-03T04:39:25.705Z,1006.65
2019-05-03T04:40:26.106Z,1006.65
2019-05-03T04:41:26.884Z,1006.67
2019-05-03T04:42:25.506Z,1006.71
2019-05-03T04:43:26.558Z,1006.73
2019-05-03T04:44:26.064Z,1006.74
2019-05-03T04:45:25.533Z,1006.69
2019-05-03T04:46:25.920Z,1006.74
2019-05-03T04:47:26.328Z,1006.76
2019-05-03T04:48:25.338Z,1006.77
2019-05-03T04:49:26.211Z,1006.78
2019-05-03T04:50:25.448Z,1006.81
2019-05-03T04:51:25.861Z,1006.78
2019-05-03T04:52:25.947Z,1006.83
2019-05-03T04:53:26.022Z,1006.84
2019-05-03T04:54:25.421Z,1006.82
2019-05-03T04:55:26.564Z,1006.80
2019-05-03T04:56:25.923Z,1006.87
2019-05-03T04:57:36.741Z,1006.83
2019-05-03T04:58:25.932Z,1006.82
2019-05-03T04:59:25.412Z,1006.81
2019-05-03T05:00:25.656Z,1006.86
2019-05-03T05:01:26.137Z,1006.84
2019-05-03T05:02:26.362Z,1006.90
2019-05-03T05:03:26.556Z,1006.89
2019-05-03T05:04:25.387Z,1006.86
2019-05-03T05:05:26.393Z,1006.89
2019-05-03T05:06:25.769Z,1006.93
2019-05-03T05:07:26.427Z,1006.96
2019-05-03T05:08:25.270Z,1006.95
2019-05-03T05:09:39.197Z,1006.99
2019-05-03T05:10:26.031Z,1006.97
2019-05-03T05:11:26.381Z,1006.90
2019-05-03T05:12:25.362Z,1007.02
2019-05-03T05:13:25.113Z,1006.92
2019-05-03T05:14:25.947Z,1006.98
2019-05-03T05:15:26.529Z,1006.96
2019-05-03T05:16:25.159Z,1007.00
2019-05-03T05:17:26.367Z,1007.00
2019-05-03T05:18:26.340Z,1007.03
2019-05-03T05:19:25.426Z,1007.02
2019-05-03T05:20:24.831Z,1007.02
2019-05-03T05:21:25.247Z,1007.03
2019-05-03T05:22:24.728Z,1007.04
2019-05-03T05:23:25.131Z,1007.03
2019-05-03T05:24:25.606Z,1007.03
2019-05-03T05:25:25.136Z,1007.05
2019-05-03T05:26:24.842Z,1007.13
2019-05-03T05:27:25.625Z,1007.12
2019-05-03T05:28:25.019Z,1007.09
2019-05-03T05:29:25.356Z,1007.16
2019-05-03T05:30:25.194Z,1007.10
2019-05-03T05:31:25.456Z,1007.08
2019-05-03T05:32:24.805Z,1007.15
2019-05-03T05:33:25.208Z,1007.11
2019-05-03T05:34:24.612Z,1007.12
2019-05-03T05:35:24.864Z,1007.14
2019-05-03T05:36:24.427Z,1007.17
2019-05-03T05:37:25.043Z,1007.13
2019-05-03T05:38:25.568Z,1007.14
2019-05-03T05:39:24.559Z,1007.13
2019-05-03T05:40:24.603Z,1007.10
2019-05-03T05:41:24.566Z,1007.14
2019-05-03T05:42:25.058Z,1007.11
2019-05-03T05:43:25.531Z,1007.16
2019-05-03T05:44:24.748Z,1007.15
2019-05-03T05:45:24.650Z,1007.15
2019-05-03T05:46:24.941Z,1007.14
2019-05-03T05:47:25.395Z,1007.13
2019-05-03T05:48:24.673Z,1007.17
2019-05-03T05:49:25.802Z,1007.19
2019-05-03T05:50:25.394Z,1007.23
2019-05-03T05:51:26.186Z,1007.26
2019-05-03T05:52:24.588Z,1007.24
2019-05-03T05:53:31.136Z,1007.28
2019-05-03T05:54:24.584Z,1007.20
2019-05-03T05:55:31.629Z,1007.23
2019-05-03T05:56:25.049Z,1007.23
2019-05-03T05:57:25.633Z,1007.27
2019-05-03T05:58:25.701Z,1007.26
2019-05-03T05:59:24.810Z,1007.23
2019-05-03T06:00:25.730Z,1007.22
2019-05-03T06:01:25.051Z,1007.20
2019-05-03T06:02:25.372Z,1007.21
2019-05-03T06:03:25.270Z,1007.24
2019-05-03T06:04:24.588Z,1007.27
2019-05-03T06:05:25.277Z,1007.28
2019-05-03T06:06:24.401Z,1007.19
2019-05-03T06:07:24.854Z,1007.24
2019-05-03T06:08:25.121Z,1007.24
2019-05-03T06:09:25.650Z,1007.23
2019-05-03T06:10:24.825Z,1007.24
2019-05-03T06:11:25.715Z,1007.26
2019-05-03T06:12:25.081Z,1007.32
2019-05-03T06:13:23.966Z,1007.34
2019-05-03T06:14:24.542Z,1007.28
2019-05-03T06:15:25.030Z,1007.30
2019-05-03T06:16:24.567Z,1007.34
2019-05-03T06:17:24.523Z,1007.32
2019-05-03T06:18:25.035Z,1007.36
2019-05-03T06:19:25.298Z,1007.32
2019-05-03T06:20:24.589Z,1007.41
2019-05-03T06:21:25.099Z,1007.36
2019-05-03T06:22:25.551Z,1007.39
2019-05-03T06:23:24.813Z,1007.40
2019-05-03T06:24:24.908Z,1007.40
2019-05-03T06:25:26.544Z,1007.34
2019-05-03T06:26:25.300Z,1007.39
2019-05-03T06:27:24.416Z,1007.38
2019-05-03T06:28:25.207Z,1007.40
2019-05-03T06:29:24.791Z,1007.42
2019-05-03T06:30:24.863Z,1007.43
2019-05-03T06:31:25.250Z,1007.37
2019-05-03T06:32:25.385Z,1007.46
2019-05-03T06:33:24.456Z,1007.47
2019-05-03T06:34:25.174Z,1007.48
2019-05-03T06:35:24.418Z,1007.47
2019-05-03T06:36:24.343Z,1007.45
2019-05-03T06:37:25.141Z,1007.49
2019-05-03T06:38:24.415Z,1007.41
2019-05-03T06:39:24.954Z,1007.36
2019-05-03T06:40:25.903Z,1007.42
2019-05-03T06:41:25.066Z,1007.40
2019-05-03T06:42:25.314Z,1007.45
2019-05-03T06:43:24.438Z,1007.41
2019-05-03T06:44:24.728Z,1007.40
2019-05-03T06:45:25.165Z,1007.43
2019-05-03T06:46:30.287Z,1007.42
2019-05-03T06:47:25.299Z,1007.34
2019-05-03T06:48:29.707Z,1007.40
2019-05-03T06:49:25.509Z,1007.36
2019-05-03T06:50:27.566Z,1007.42
2019-05-03T06:51:24.899Z,1007.31
2019-05-03T06:52:25.485Z,1007.30
2019-05-03T06:53:25.408Z,1007.37
2019-05-03T06:54:28.285Z,1007.32
2019-05-03T06:55:24.830Z,1007.33
2019-05-03T06:56:25.124Z,1007.31
2019-05-03T06:57:25.335Z,1007.33
2019-05-03T06:58:31.309Z,1007.29
2019-05-03T06:59:24.973Z,1007.26
2019-05-03T07:00:24.808Z,1007.33
2019-05-03T07:01:25.163Z,1007.24
2019-05-03T07:02:25.155Z,1007.35
2019-05-03T07:03:25.106Z,1007.35
2019-05-03T07:04:24.524Z,1007.35
2019-05-03T07:05:25.134Z,1007.31
2019-05-03T07:06:34.436Z,1007.25
2019-05-03T07:07:27.873Z,1007.42
2019-05-03T07:08:25.214Z,1007.44
2019-05-03T07:09:24.992Z,1007.45
2019-05-03T07:10:24.905Z,1007.40
2019-05-03T07:11:24.721Z,1007.37
2019-05-03T07:12:25.014Z,1007.34
2019-05-03T07:13:25.354Z,1007.39
2019-05-03T07:14:24.667Z,1007.42
2019-05-03T07:15:25.204Z,1007.38
2019-05-03T07:16:25.144Z,1007.40
2019-05-03T07:17:24.888Z,1007.33
2019-05-03T07:18:24.709Z,1007.40
2019-05-03T07:19:24.931Z,1007.39
2019-05-03T07:20:25.610Z,1007.39
2019-05-03T07:21:24.736Z,1007.40
2019-05-03T07:22:30.168Z,1007.40
2019-05-03T07:23:24.477Z,1007.37
2019-05-03T07:24:24.869Z,1007.33
2019-05-03T07:25:25.323Z,1007.32
2019-05-03T07:26:25.227Z,1007.26
2019-05-03T07:27:24.787Z,1007.28
2019-05-03T07:28:24.844Z,1007.33
2019-05-03T07:29:23.040Z,1007.36
2019-05-03T07:30:24.762Z,1007.31
2019-05-03T07:31:23.020Z,1007.31
2019-05-03T07:32:24.669Z,1007.31
2019-05-03T07:33:22.996Z,1007.26
2019-05-03T07:34:24.789Z,1007.27
2019-05-03T07:35:24.990Z,1007.32
2019-05-03T07:36:27.361Z,1007.29
2019-05-03T07:37:24.606Z,1007.31
2019-05-03T07:38:24.836Z,1007.25
2019-05-03T07:39:24.544Z,1007.30
2019-05-03T07:40:25.072Z,1007.31
2019-05-03T07:41:25.096Z,1007.25
2019-05-03T07:42:22.941Z,1007.32
2019-05-03T07:43:24.538Z,1007.37
2019-05-03T07:44:22.947Z,1007.37
2019-05-03T07:45:22.878Z,1007.36
2019-05-03T07:46:24.709Z,1007.44
2019-05-03T07:47:24.586Z,1007.40
2019-05-03T07:48:22.872Z,1007.35
2019-05-03T07:49:24.821Z,1007.42
2019-05-03T07:50:22.916Z,1007.37
2019-05-03T07:51:24.689Z,1007.46
2019-05-03T07:52:22.899Z,1007.43
2019-05-03T07:53:25.014Z,1007.40
2019-05-03T07:54:24.691Z,1007.41
2019-05-03T07:55:24.877Z,1007.39
2019-05-03T07:56:22.824Z,1007.38
2019-05-03T07:57:22.733Z,1007.35
2019-05-03T07:58:22.742Z,1007.39
2019-05-03T07:59:22.709Z,1007.42
2019-05-03T08:00:22.781Z,1007.46
2019-05-03T08:01:22.688Z,1007.47
2019-05-03T08:02:25.164Z,1007.51
2019-05-03T08:03:24.321Z,1007.56
2019-05-03T08:04:25.548Z,1007.49
2019-05-03T08:05:24.570Z,1007.52
2019-05-03T08:06:37.639Z,1007.44
2019-05-03T08:07:23.485Z,1007.48
2019-05-03T08:08:25.060Z,1007.47
2019-05-03T08:09:24.474Z,1007.45
2019-05-03T08:10:22.644Z,1007.54
2019-05-03T08:11:24.731Z,1007.48
2019-05-03T08:12:24.559Z,1007.46
2019-05-03T08:13:22.555Z,1007.43
2019-05-03T08:14:22.641Z,1007.44
2019-05-03T08:15:24.069Z,1007.39
2019-05-03T08:16:24.859Z,1007.40
2019-05-03T08:17:22.512Z,1007.36
2019-05-03T08:18:22.566Z,1007.34
2019-05-03T08:19:24.468Z,1007.40
2019-05-03T08:20:24.705Z,1007.38
2019-05-03T08:21:22.469Z,1007.44
2019-05-03T08:22:22.492Z,1007.49
2019-05-03T08:23:27.484Z,1007.45
2019-05-03T08:24:25.344Z,1007.51
2019-05-03T08:25:22.439Z,1007.44
2019-05-03T08:26:22.520Z,1007.48
2019-05-03T08:27:22.404Z,1007.45
2019-05-03T08:28:24.417Z,1007.41
2019-05-03T08:29:22.387Z,1007.44
2019-05-03T08:30:22.473Z,1007.44
2019-05-03T08:31:24.056Z,1007.47
2019-05-03T08:32:24.455Z,1007.51
2019-05-03T08:33:22.336Z,1007.48
2019-05-03T08:34:22.470Z,1007.40
2019-05-03T08:35:24.265Z,1007.55
2019-05-03T08:36:24.625Z,1007.47
2019-05-03T08:37:24.374Z,1007.33
2019-05-03T08:38:22.294Z,1007.43
2019-05-03T08:39:22.272Z,1007.40
2019-05-03T08:40:24.427Z,1007.42
2019-05-03T08:41:22.247Z,1007.46
2019-05-03T08:42:22.322Z,1007.46
2019-05-03T08:43:22.227Z,1007.48
2019-05-03T08:44:22.232Z,1007.43
2019-05-03T08:45:22.232Z,1007.33
2019-05-03T08:46:22.247Z,1007.45
2019-05-03T08:47:22.180Z,1007.51
2019-05-03T08:48:22.260Z,1007.47
2019-05-03T08:49:22.160Z,1007.51
2019-05-03T08:50:29.134Z,1007.45
2019-05-03T08:51:22.152Z,1007.47
2019-05-03T08:52:24.815Z,1007.42
2019-05-03T08:53:22.119Z,1007.37
2019-05-03T08:54:25.400Z,1007.36
2019-05-03T08:55:22.094Z,1007.33
2019-05-03T08:56:22.154Z,1007.41
2019-05-03T08:57:22.073Z,1007.38
2019-05-03T08:58:22.124Z,1007.42
2019-05-03T08:59:31.576Z,1007.39
2019-05-03T09:00:24.925Z,1007.26
2019-05-03T09:01:22.079Z,1007.36
2019-05-03T09:02:22.028Z,1007.34
2019-05-03T09:03:22.057Z,1007.32
2019-05-03T09:04:34.233Z,1007.21
2019-05-03T09:05:24.869Z,1007.24
2019-05-03T09:06:22.027Z,1007.19
2019-05-03T09:07:21.961Z,1007.21
2019-05-03T09:08:21.992Z,1007.17
2019-05-03T09:09:21.943Z,1007.22
2019-05-03T09:10:22.002Z,1007.18
2019-05-03T09:11:33.365Z,1007.28
2019-05-03T09:12:25.044Z,1007.30
2019-05-03T09:13:21.923Z,1007.18
2019-05-03T09:14:21.884Z,1007.27
2019-05-03T09:15:21.937Z,1007.25
2019-05-03T09:16:21.948Z,1007.26
2019-05-03T09:17:21.948Z,1007.21
2019-05-03T09:18:21.846Z,1007.26
2019-05-03T09:19:21.922Z,1007.23
2019-05-03T09:20:21.817Z,1007.15
2019-05-03T09:21:21.905Z,1007.16
2019-05-03T09:22:21.795Z,1007.20
2019-05-03T09:23:25.466Z,1007.19
2019-05-03T09:24:21.785Z,1007.18
2019-05-03T09:25:21.799Z,1007.21
2019-05-03T09:26:21.767Z,1007.24
2019-05-03T09:27:21.813Z,1007.16
2019-05-03T09:28:21.731Z,1007.24
2019-05-03T09:29:21.827Z,1007.22
2019-05-03T09:30:21.707Z,1007.18
2019-05-03T09:31:21.770Z,1007.23
2019-05-03T09:32:21.690Z,1007.20
2019-05-03T09:33:24.727Z,1007.27
2019-05-03T09:34:21.670Z,1007.24
2019-05-03T09:35:33.265Z,1007.22
2019-05-03T09:36:22.655Z,1007.22
2019-05-03T09:37:28.640Z,1007.13
2019-05-03T09:38:21.618Z,1007.26
2019-05-03T09:39:24.484Z,1007.20
2019-05-03T09:40:21.597Z,1007.19
2019-05-03T09:41:21.632Z,1007.27
2019-05-03T09:42:21.575Z,1007.28
2019-05-03T09:43:21.616Z,1007.27
2019-05-03T09:44:21.554Z,1007.35
2019-05-03T09:45:21.628Z,1007.28
2019-05-03T09:46:23.496Z,1007.28
2019-05-03T09:47:21.547Z,1007.22
2019-05-03T09:48:21.545Z,1007.20
2019-05-03T09:49:21.555Z,1007.20
2019-05-03T09:50:21.486Z,1007.19
2019-05-03T09:51:21.598Z,1007.10
2019-05-03T09:52:21.467Z,1007.10
2019-05-03T09:53:21.478Z,1007.10
2019-05-03T09:54:21.443Z,1007.13
2019-05-03T09:55:21.495Z,1007.11
2019-05-03T09:56:21.440Z,1007.13
2019-05-03T09:57:21.507Z,1007.10
2019-05-03T09:58:21.400Z,1007.14
2019-05-03T09:59:21.419Z,1007.12
2019-05-03T10:00:21.377Z,1007.13
2019-05-03T10:01:21.463Z,1007.12
2019-05-03T10:02:21.354Z,1007.14
2019-05-03T10:03:21.445Z,1007.33
2019-05-03T10:04:21.337Z,1007.32
2019-05-03T10:05:21.359Z,1007.24
2019-05-03T10:06:21.356Z,1007.28
2019-05-03T10:07:21.374Z,1007.29
2019-05-03T10:08:21.291Z,1007.34
2019-05-03T10:09:21.388Z,1007.28
2019-05-03T10:10:21.266Z,1007.25
2019-05-03T10:11:21.327Z,1007.29
2019-05-03T10:12:21.253Z,1007.34
2019-05-03T10:13:23.615Z,1007.24
2019-05-03T10:14:21.225Z,1007.07
2019-05-03T10:15:21.327Z,1007.01
2019-05-03T10:16:21.203Z,1007.07
2019-05-03T10:17:21.271Z,1007.07
2019-05-03T10:18:21.179Z,1007.04
2019-05-03T10:19:33.751Z,1007.12
2019-05-03T10:20:22.156Z,1007.12
2019-05-03T10:21:21.190Z,1007.10
2019-05-03T10:22:21.153Z,1007.12
2019-05-03T10:23:27.726Z,1007.13
2019-05-03T10:24:21.116Z,1007.09
2019-05-03T10:25:22.211Z,1007.11
2019-05-03T10:26:21.091Z,1007.20
2019-05-03T10:27:21.130Z,1007.19
2019-05-03T10:28:21.069Z,1007.15
2019-05-03T10:29:21.113Z,1007.09
2019-05-03T10:30:21.046Z,1006.95
2019-05-03T10:31:21.125Z,1007.10
2019-05-03T10:32:21.042Z,1007.04
2019-05-03T10:33:21.036Z,1006.99
2019-05-03T10:34:21.005Z,1007.08
2019-05-03T10:35:21.051Z,1007.02
2019-05-03T10:36:20.983Z,1007.03
2019-05-03T10:37:21.097Z,1007.02
2019-05-03T10:38:20.964Z,1007.07
2019-05-03T10:39:20.976Z,1007.11
2019-05-03T10:40:20.936Z,1007.04
2019-05-03T10:41:20.989Z,1007.06
2019-05-03T10:42:20.929Z,1007.05
2019-05-03T10:43:21.003Z,1007.05
2019-05-03T10:44:20.893Z,1007.00
2019-05-03T10:45:20.918Z,1007.05
2019-05-03T10:46:20.869Z,1007.03
2019-05-03T10:47:20.962Z,1007.08
2019-05-03T10:48:20.848Z,1007.04
2019-05-03T10:49:20.941Z,1007.01
2019-05-03T10:50:20.829Z,1007.06
2019-05-03T10:51:20.854Z,1006.96
2019-05-03T10:52:20.818Z,1006.97
2019-05-03T10:53:20.871Z,1006.98
2019-05-03T10:54:20.784Z,1007.02
2019-05-03T10:55:20.882Z,1007.04
2019-05-03T10:56:23.665Z,1006.98
2019-05-03T10:57:21.847Z,1007.01
2019-05-03T10:58:20.744Z,1007.00
2019-05-03T10:59:20.810Z,1007.04
2019-05-03T11:00:42.498Z,1007.02
2019-05-03T11:01:21.704Z,1006.98
2019-05-03T11:02:20.755Z,1007.01
2019-05-03T11:03:20.685Z,1007.05
2019-05-03T11:04:20.737Z,1007.01
2019-05-03T11:05:20.666Z,1006.95
2019-05-03T11:06:20.750Z,1006.97
2019-05-03T11:07:20.657Z,1006.98
2019-05-03T11:08:20.662Z,1007.02
2019-05-03T11:09:20.620Z,1006.99
2019-05-03T11:10:20.676Z,1006.94
2019-05-03T11:11:20.599Z,1006.97
2019-05-03T11:12:25.443Z,1007.00
2019-05-03T11:13:20.574Z,1006.99
2019-05-03T11:14:20.602Z,1007.09
2019-05-03T11:15:20.553Z,1007.14
2019-05-03T11:16:20.616Z,1007.13
2019-05-03T11:17:20.547Z,1007.23
2019-05-03T11:18:20.635Z,1007.06
2019-05-03T11:19:20.510Z,1007.12
2019-05-03T11:20:28.407Z,1007.19
2019-05-03T11:21:28.189Z,1007.16
2019-05-03T11:22:22.105Z,1007.08
2019-05-03T11:23:20.561Z,1007.15
2019-05-03T11:24:23.377Z,1007.14
2019-05-03T11:25:20.472Z,1006.82
2019-05-03T11:26:20.434Z,1006.81
2019-05-03T11:27:20.518Z,1006.83
2019-05-03T11:28:20.414Z,1006.87
2019-05-03T11:29:20.508Z,1007.01
2019-05-03T11:30:20.392Z,1006.87
2019-05-03T11:31:20.411Z,1006.90
2019-05-03T11:32:20.385Z,1006.99
2019-05-03T11:33:20.439Z,1006.85
2019-05-03T11:34:22.515Z,1006.80
2019-05-03T11:35:20.438Z,1007.07
2019-05-03T11:36:20.326Z,1007.01
2019-05-03T11:37:20.381Z,1007.03
2019-05-03T11:38:20.301Z,1006.97
2019-05-03T11:39:20.363Z,1007.02
2019-05-03T11:40:20.281Z,1006.89
2019-05-03T11:41:30.355Z,1006.74
2019-05-03T11:42:21.289Z,1006.62
2019-05-03T11:43:20.288Z,1006.79
2019-05-03T11:44:20.240Z,1006.77
2019-05-03T11:45:20.303Z,1007.06
2019-05-03T11:46:20.216Z,1006.67
2019-05-03T11:47:20.318Z,1006.68
2019-05-03T11:48:20.208Z,1006.67
2019-05-03T11:49:28.214Z,1006.67
2019-05-03T11:50:20.172Z,1006.65
2019-05-03T11:52:28.983Z,1006.67
2019-05-03T11:53:28.915Z,1006.58
2019-05-03T11:54:28.965Z,1006.65
2019-05-03T11:55:28.883Z,1006.57
2019-05-03T11:56:28.979Z,1006.62
2019-05-03T11:57:28.862Z,1006.57
2019-05-03T11:58:28.923Z,1006.59
2019-05-03T11:59:28.840Z,1006.64
2019-05-03T12:00:28.903Z,1006.63
2019-05-03T12:01:28.820Z,1006.66
2019-05-03T12:02:29.004Z,1006.57
2019-05-03T12:03:28.807Z,1006.62
2019-05-03T12:04:28.830Z,1006.63
2019-05-03T12:05:28.770Z,1006.60
2019-05-03T12:06:28.843Z,1006.65
2019-05-03T12:07:38.534Z,1006.86